sensor_id;sensor_type;location;lat;lon;timestamp;P1;durP1;ratioP1;P2;durP2;ratioP2
4021;SDS011;2025;48.260;16.432;2023-04-23T00:02:02;11.77;;;4.65;;
4021;SDS011;2025;48.260;16.432;2023-04-23T00:04:30;9.93;;;4.15;;
4021;SDS011;2025;48.260;16.432;2023-04-23T00:07:01;10.23;;;4.20;;
4021;SDS011;2025;48.260;16.432;2023-04-23T00:09:29;9.10;;;4.25;;
4021;SDS011;2025;48.260;16.432;2023-04-23T00:11:57;10.85;;;4.65;;
4021;SDS011;2025;48.260;16.432;2023-04-23T00:14:26;11.65;;;4.35;;
4021;SDS011;2025;48.260;16.432;2023-04-23T00:16:54;11.35;;;5.60;;
4021;SDS011;2025;48.260;16.432;2023-04-23T00:19:21;11.15;;;4.85;;
4021;SDS011;2025;48.260;16.432;2023-04-23T00:21:48;10.02;;;4.78;;
4021;SDS011;2025;48.260;16.432;2023-04-23T00:24:15;10.38;;;4.72;;
4021;SDS011;2025;48.260;16.432;2023-04-23T00:26:42;9.52;;;4.38;;
4021;SDS011;2025;48.260;16.432;2023-04-23T00:29:09;9.07;;;5.07;;
4021;SDS011;2025;48.260;16.432;2023-04-23T00:31:38;10.18;;;4.28;;
4021;SDS011;2025;48.260;16.432;2023-04-23T00:34:05;15.32;;;5.90;;
4021;SDS011;2025;48.260;16.432;2023-04-23T00:36:32;9.07;;;4.50;;
4021;SDS011;2025;48.260;16.432;2023-04-23T00:38:59;8.82;;;4.00;;
4021;SDS011;2025;48.260;16.432;2023-04-23T00:41:26;9.35;;;4.65;;
4021;SDS011;2025;48.260;16.432;2023-04-23T00:43:54;9.38;;;3.92;;
4021;SDS011;2025;48.260;16.432;2023-04-23T00:46:22;11.60;;;5.05;;
4021;SDS011;2025;48.260;16.432;2023-04-23T00:48:52;11.75;;;4.20;;
4021;SDS011;2025;48.260;16.432;2023-04-23T00:51:20;12.52;;;4.60;;
4021;SDS011;2025;48.260;16.432;2023-04-23T00:53:48;10.50;;;4.43;;
4021;SDS011;2025;48.260;16.432;2023-04-23T00:56:15;11.45;;;4.45;;
4021;SDS011;2025;48.260;16.432;2023-04-23T00:58:43;8.93;;;4.30;;
4021;SDS011;2025;48.260;16.432;2023-04-23T01:01:10;8.27;;;4.10;;
4021;SDS011;2025;48.260;16.432;2023-04-23T01:03:38;12.55;;;4.85;;
4021;SDS011;2025;48.260;16.432;2023-04-23T01:06:09;8.88;;;4.03;;
4021;SDS011;2025;48.260;16.432;2023-04-23T01:08:36;8.93;;;3.95;;
4021;SDS011;2025;48.260;16.432;2023-04-23T01:11:04;8.30;;;4.30;;
4021;SDS011;2025;48.260;16.432;2023-04-23T01:13:31;11.00;;;4.25;;
4021;SDS011;2025;48.260;16.432;2023-04-23T01:15:59;7.97;;;3.95;;
4021;SDS011;2025;48.260;16.432;2023-04-23T01:18:27;10.98;;;4.55;;
4021;SDS011;2025;48.260;16.432;2023-04-23T01:20:55;9.85;;;5.20;;
4021;SDS011;2025;48.260;16.432;2023-04-23T01:23:23;8.38;;;4.22;;
4021;SDS011;2025;48.260;16.432;2023-04-23T01:25:52;9.68;;;4.53;;
4021;SDS011;2025;48.260;16.432;2023-04-23T01:28:19;8.95;;;4.65;;
4021;SDS011;2025;48.260;16.432;2023-04-23T01:30:46;11.98;;;4.75;;
4021;SDS011;2025;48.260;16.432;2023-04-23T01:33:13;9.43;;;4.70;;
4021;SDS011;2025;48.260;16.432;2023-04-23T01:35:41;11.05;;;4.78;;
4021;SDS011;2025;48.260;16.432;2023-04-23T01:38:09;13.10;;;5.15;;
4021;SDS011;2025;48.260;16.432;2023-04-23T01:40:38;11.05;;;4.20;;
4021;SDS011;2025;48.260;16.432;2023-04-23T01:43:05;9.50;;;4.28;;
4021;SDS011;2025;48.260;16.432;2023-04-23T01:45:33;12.07;;;4.93;;
4021;SDS011;2025;48.260;16.432;2023-04-23T01:47:59;8.88;;;4.78;;
4021;SDS011;2025;48.260;16.432;2023-04-23T01:50:27;12.35;;;5.53;;
4021;SDS011;2025;48.260;16.432;2023-04-23T01:52:55;10.07;;;4.50;;
4021;SDS011;2025;48.260;16.432;2023-04-23T01:55:21;9.90;;;4.90;;
4021;SDS011;2025;48.260;16.432;2023-04-23T01:57:50;8.55;;;5.07;;
4021;SDS011;2025;48.260;16.432;2023-04-23T02:00:17;9.20;;;4.53;;
4021;SDS011;2025;48.260;16.432;2023-04-23T02:02:44;9.02;;;4.30;;
4021;SDS011;2025;48.260;16.432;2023-04-23T02:05:12;8.27;;;4.47;;
4021;SDS011;2025;48.260;16.432;2023-04-23T02:07:40;9.57;;;4.43;;
4021;SDS011;2025;48.260;16.432;2023-04-23T02:10:09;10.25;;;4.35;;
4021;SDS011;2025;48.260;16.432;2023-04-23T02:12:36;9.43;;;4.20;;
4021;SDS011;2025;48.260;16.432;2023-04-23T02:15:06;10.73;;;4.93;;
4021;SDS011;2025;48.260;16.432;2023-04-23T02:17:34;10.93;;;4.30;;
4021;SDS011;2025;48.260;16.432;2023-04-23T02:20:01;8.63;;;4.43;;
4021;SDS011;2025;48.260;16.432;2023-04-23T02:22:29;11.05;;;4.28;;
4021;SDS011;2025;48.260;16.432;2023-04-23T02:24:56;10.55;;;4.75;;
4021;SDS011;2025;48.260;16.432;2023-04-23T02:27:24;9.05;;;4.57;;
4021;SDS011;2025;48.260;16.432;2023-04-23T02:29:51;12.07;;;5.50;;
4021;SDS011;2025;48.260;16.432;2023-04-23T02:32:20;12.40;;;5.00;;
4021;SDS011;2025;48.260;16.432;2023-04-23T02:34:47;10.18;;;4.70;;
4021;SDS011;2025;48.260;16.432;2023-04-23T02:37:14;10.75;;;4.97;;
4021;SDS011;2025;48.260;16.432;2023-04-23T02:39:41;9.77;;;4.40;;
4021;SDS011;2025;48.260;16.432;2023-04-23T02:42:08;9.40;;;5.40;;
4021;SDS011;2025;48.260;16.432;2023-04-23T02:44:35;10.50;;;4.72;;
4021;SDS011;2025;48.260;16.432;2023-04-23T02:47:02;9.90;;;4.45;;
4021;SDS011;2025;48.260;16.432;2023-04-23T02:49:30;9.80;;;4.75;;
4021;SDS011;2025;48.260;16.432;2023-04-23T02:51:57;9.15;;;4.60;;
4021;SDS011;2025;48.260;16.432;2023-04-23T02:54:24;9.35;;;4.93;;
4021;SDS011;2025;48.260;16.432;2023-04-23T02:56:51;10.18;;;5.22;;
4021;SDS011;2025;48.260;16.432;2023-04-23T02:59:18;12.63;;;5.65;;
4021;SDS011;2025;48.260;16.432;2023-04-23T03:01:45;11.35;;;4.80;;
4021;SDS011;2025;48.260;16.432;2023-04-23T03:04:12;11.13;;;4.97;;
4021;SDS011;2025;48.260;16.432;2023-04-23T03:06:41;11.60;;;5.35;;
4021;SDS011;2025;48.260;16.432;2023-04-23T03:09:08;12.93;;;5.53;;
4021;SDS011;2025;48.260;16.432;2023-04-23T03:11:35;7.88;;;4.70;;
4021;SDS011;2025;48.260;16.432;2023-04-23T03:14:02;9.88;;;4.82;;
4021;SDS011;2025;48.260;16.432;2023-04-23T03:16:30;9.70;;;4.78;;
4021;SDS011;2025;48.260;16.432;2023-04-23T03:18:57;10.98;;;5.35;;
4021;SDS011;2025;48.260;16.432;2023-04-23T03:21:25;11.50;;;5.13;;
4021;SDS011;2025;48.260;16.432;2023-04-23T03:23:53;11.98;;;5.10;;
4021;SDS011;2025;48.260;16.432;2023-04-23T03:26:20;9.32;;;5.38;;
4021;SDS011;2025;48.260;16.432;2023-04-23T03:28:47;11.68;;;5.50;;
4021;SDS011;2025;48.260;16.432;2023-04-23T03:31:14;10.30;;;4.85;;
4021;SDS011;2025;48.260;16.432;2023-04-23T03:33:41;11.15;;;5.25;;
4021;SDS011;2025;48.260;16.432;2023-04-23T03:36:08;12.43;;;5.43;;
4021;SDS011;2025;48.260;16.432;2023-04-23T03:38:35;11.48;;;4.90;;
4021;SDS011;2025;48.260;16.432;2023-04-23T03:41:04;10.40;;;6.00;;
4021;SDS011;2025;48.260;16.432;2023-04-23T03:43:31;10.95;;;4.75;;
4021;SDS011;2025;48.260;16.432;2023-04-23T03:45:58;10.35;;;5.68;;
4021;SDS011;2025;48.260;16.432;2023-04-23T03:48:25;10.43;;;5.25;;
4021;SDS011;2025;48.260;16.432;2023-04-23T03:50:52;15.07;;;5.85;;
4021;SDS011;2025;48.260;16.432;2023-04-23T03:53:19;12.93;;;5.57;;
4021;SDS011;2025;48.260;16.432;2023-04-23T03:55:46;10.43;;;5.22;;
4021;SDS011;2025;48.260;16.432;2023-04-23T03:58:15;12.18;;;5.22;;
4021;SDS011;2025;48.260;16.432;2023-04-23T04:00:42;12.13;;;5.57;;
4021;SDS011;2025;48.260;16.432;2023-04-23T04:03:09;11.68;;;5.70;;
4021;SDS011;2025;48.260;16.432;2023-04-23T04:05:37;12.10;;;5.55;;
4021;SDS011;2025;48.260;16.432;2023-04-23T04:08:04;12.25;;;6.53;;
4021;SDS011;2025;48.260;16.432;2023-04-23T04:10:31;9.85;;;4.97;;
4021;SDS011;2025;48.260;16.432;2023-04-23T04:12:58;14.65;;;6.82;;
4021;SDS011;2025;48.260;16.432;2023-04-23T04:15:26;14.23;;;6.05;;
4021;SDS011;2025;48.260;16.432;2023-04-23T04:17:53;10.77;;;5.65;;
4021;SDS011;2025;48.260;16.432;2023-04-23T04:20:20;12.50;;;6.43;;
4021;SDS011;2025;48.260;16.432;2023-04-23T04:22:47;14.90;;;6.35;;
4021;SDS011;2025;48.260;16.432;2023-04-23T04:25:14;14.40;;;6.13;;
4021;SDS011;2025;48.260;16.432;2023-04-23T04:27:41;11.80;;;6.28;;
4021;SDS011;2025;48.260;16.432;2023-04-23T04:30:08;13.82;;;6.75;;
4021;SDS011;2025;48.260;16.432;2023-04-23T04:32:37;12.23;;;5.97;;
4021;SDS011;2025;48.260;16.432;2023-04-23T04:35:04;11.57;;;5.38;;
4021;SDS011;2025;48.260;16.432;2023-04-23T04:37:33;12.57;;;6.13;;
4021;SDS011;2025;48.260;16.432;2023-04-23T04:40:00;12.25;;;6.03;;
4021;SDS011;2025;48.260;16.432;2023-04-23T04:42:27;13.07;;;5.85;;
4021;SDS011;2025;48.260;16.432;2023-04-23T04:44:54;13.00;;;6.15;;
4021;SDS011;2025;48.260;16.432;2023-04-23T04:47:23;12.82;;;6.00;;
4021;SDS011;2025;48.260;16.432;2023-04-23T04:49:51;12.90;;;6.93;;
4021;SDS011;2025;48.260;16.432;2023-04-23T04:52:21;14.75;;;6.43;;
4021;SDS011;2025;48.260;16.432;2023-04-23T04:54:48;12.82;;;6.80;;
4021;SDS011;2025;48.260;16.432;2023-04-23T04:57:15;12.32;;;6.35;;
4021;SDS011;2025;48.260;16.432;2023-04-23T04:59:44;15.27;;;7.03;;
4021;SDS011;2025;48.260;16.432;2023-04-23T05:02:11;12.18;;;6.70;;
4021;SDS011;2025;48.260;16.432;2023-04-23T05:04:38;13.50;;;6.80;;
4021;SDS011;2025;48.260;16.432;2023-04-23T05:07:06;13.32;;;6.53;;
4021;SDS011;2025;48.260;16.432;2023-04-23T05:09:33;13.18;;;7.10;;
4021;SDS011;2025;48.260;16.432;2023-04-23T05:12:00;13.13;;;7.55;;
4021;SDS011;2025;48.260;16.432;2023-04-23T05:14:27;13.38;;;7.13;;
4021;SDS011;2025;48.260;16.432;2023-04-23T05:16:54;15.75;;;6.82;;
4021;SDS011;2025;48.260;16.432;2023-04-23T05:19:21;13.07;;;6.45;;
4021;SDS011;2025;48.260;16.432;2023-04-23T05:21:49;13.60;;;6.65;;
4021;SDS011;2025;48.260;16.432;2023-04-23T05:24:17;11.13;;;6.03;;
4021;SDS011;2025;48.260;16.432;2023-04-23T05:26:44;13.32;;;6.32;;
4021;SDS011;2025;48.260;16.432;2023-04-23T05:29:11;11.77;;;6.03;;
4021;SDS011;2025;48.260;16.432;2023-04-23T05:31:42;11.45;;;5.10;;
4021;SDS011;2025;48.260;16.432;2023-04-23T05:34:09;11.25;;;5.97;;
4021;SDS011;2025;48.260;16.432;2023-04-23T05:36:36;12.82;;;5.50;;
4021;SDS011;2025;48.260;16.432;2023-04-23T05:39:04;9.98;;;5.88;;
4021;SDS011;2025;48.260;16.432;2023-04-23T05:41:32;12.77;;;6.82;;
4021;SDS011;2025;48.260;16.432;2023-04-23T05:43:59;9.88;;;4.97;;
4021;SDS011;2025;48.260;16.432;2023-04-23T05:46:26;11.57;;;5.97;;
4021;SDS011;2025;48.260;16.432;2023-04-23T05:48:53;12.07;;;5.72;;
4021;SDS011;2025;48.260;16.432;2023-04-23T05:51:20;9.38;;;4.50;;
4021;SDS011;2025;48.260;16.432;2023-04-23T05:53:47;8.30;;;3.97;;
4021;SDS011;2025;48.260;16.432;2023-04-23T05:56:14;10.82;;;4.82;;
4021;SDS011;2025;48.260;16.432;2023-04-23T05:58:42;11.27;;;4.85;;
4021;SDS011;2025;48.260;16.432;2023-04-23T06:01:09;9.18;;;4.47;;
4021;SDS011;2025;48.260;16.432;2023-04-23T06:03:36;12.15;;;5.75;;
4021;SDS011;2025;48.260;16.432;2023-04-23T06:06:06;10.63;;;5.28;;
4021;SDS011;2025;48.260;16.432;2023-04-23T06:08:33;9.15;;;5.63;;
4021;SDS011;2025;48.260;16.432;2023-04-23T06:11:00;13.88;;;5.95;;
4021;SDS011;2025;48.260;16.432;2023-04-23T06:13:27;8.90;;;4.70;;
4021;SDS011;2025;48.260;16.432;2023-04-23T06:15:56;11.75;;;5.13;;
4021;SDS011;2025;48.260;16.432;2023-04-23T06:18:23;10.88;;;5.25;;
4021;SDS011;2025;48.260;16.432;2023-04-23T06:20:51;11.05;;;5.30;;
4021;SDS011;2025;48.260;16.432;2023-04-23T06:23:21;8.85;;;5.05;;
4021;SDS011;2025;48.260;16.432;2023-04-23T06:25:48;10.82;;;5.55;;
4021;SDS011;2025;48.260;16.432;2023-04-23T06:28:15;11.07;;;5.28;;
4021;SDS011;2025;48.260;16.432;2023-04-23T06:30:42;12.52;;;5.28;;
4021;SDS011;2025;48.260;16.432;2023-04-23T06:33:10;10.88;;;6.03;;
4021;SDS011;2025;48.260;16.432;2023-04-23T06:35:37;10.80;;;4.57;;
4021;SDS011;2025;48.260;16.432;2023-04-23T06:38:04;10.73;;;4.90;;
4021;SDS011;2025;48.260;16.432;2023-04-23T06:40:31;13.52;;;5.32;;
4021;SDS011;2025;48.260;16.432;2023-04-23T06:42:58;13.38;;;4.95;;
4021;SDS011;2025;48.260;16.432;2023-04-23T06:45:28;9.30;;;4.82;;
4021;SDS011;2025;48.260;16.432;2023-04-23T06:47:56;11.40;;;5.13;;
4021;SDS011;2025;48.260;16.432;2023-04-23T06:50:24;12.63;;;5.90;;
4021;SDS011;2025;48.260;16.432;2023-04-23T06:52:51;8.85;;;4.22;;
4021;SDS011;2025;48.260;16.432;2023-04-23T06:55:20;8.30;;;4.60;;
4021;SDS011;2025;48.260;16.432;2023-04-23T06:57:50;10.00;;;4.55;;
4021;SDS011;2025;48.260;16.432;2023-04-23T07:00:17;9.50;;;4.97;;
4021;SDS011;2025;48.260;16.432;2023-04-23T07:02:44;11.90;;;4.70;;
4021;SDS011;2025;48.260;16.432;2023-04-23T07:05:11;7.60;;;4.10;;
4021;SDS011;2025;48.260;16.432;2023-04-23T07:07:40;9.68;;;4.55;;
4021;SDS011;2025;48.260;16.432;2023-04-23T07:10:08;10.25;;;4.35;;
4021;SDS011;2025;48.260;16.432;2023-04-23T07:12:36;9.20;;;4.22;;
4021;SDS011;2025;48.260;16.432;2023-04-23T07:15:04;9.57;;;3.92;;
4021;SDS011;2025;48.260;16.432;2023-04-23T07:17:32;9.35;;;4.30;;
4021;SDS011;2025;48.260;16.432;2023-04-23T07:20:00;9.18;;;4.35;;
4021;SDS011;2025;48.260;16.432;2023-04-23T07:22:30;9.10;;;4.30;;
4021;SDS011;2025;48.260;16.432;2023-04-23T07:24:59;10.40;;;4.78;;
4021;SDS011;2025;48.260;16.432;2023-04-23T07:27:26;9.70;;;4.45;;
4021;SDS011;2025;48.260;16.432;2023-04-23T07:29:53;8.93;;;4.65;;
4021;SDS011;2025;48.260;16.432;2023-04-23T07:32:20;10.70;;;5.97;;
4021;SDS011;2025;48.260;16.432;2023-04-23T07:34:51;10.18;;;4.90;;
4021;SDS011;2025;48.260;16.432;2023-04-23T07:37:18;8.93;;;4.72;;
4021;SDS011;2025;48.260;16.432;2023-04-23T07:39:46;9.20;;;4.75;;
4021;SDS011;2025;48.260;16.432;2023-04-23T07:42:14;10.52;;;4.35;;
4021;SDS011;2025;48.260;16.432;2023-04-23T07:44:41;9.90;;;4.57;;
4021;SDS011;2025;48.260;16.432;2023-04-23T07:47:08;9.13;;;4.50;;
4021;SDS011;2025;48.260;16.432;2023-04-23T07:49:35;9.25;;;4.55;;
4021;SDS011;2025;48.260;16.432;2023-04-23T07:52:02;9.95;;;4.75;;
4021;SDS011;2025;48.260;16.432;2023-04-23T07:54:29;8.95;;;4.38;;
4021;SDS011;2025;48.260;16.432;2023-04-23T07:56:56;8.60;;;4.30;;
4021;SDS011;2025;48.260;16.432;2023-04-23T07:59:24;16.25;;;5.50;;
4021;SDS011;2025;48.260;16.432;2023-04-23T08:01:51;10.27;;;4.55;;
4021;SDS011;2025;48.260;16.432;2023-04-23T08:04:18;11.70;;;4.93;;
4021;SDS011;2025;48.260;16.432;2023-04-23T08:06:45;8.48;;;3.92;;
4021;SDS011;2025;48.260;16.432;2023-04-23T08:09:12;9.48;;;4.57;;
4021;SDS011;2025;48.260;16.432;2023-04-23T08:11:39;11.52;;;4.40;;
4021;SDS011;2025;48.260;16.432;2023-04-23T08:14:06;7.63;;;4.03;;
4021;SDS011;2025;48.260;16.432;2023-04-23T08:16:34;11.60;;;4.82;;
4021;SDS011;2025;48.260;16.432;2023-04-23T08:19:02;10.07;;;4.45;;
4021;SDS011;2025;48.260;16.432;2023-04-23T08:21:30;7.95;;;3.90;;
4021;SDS011;2025;48.260;16.432;2023-04-23T08:23:57;11.65;;;4.43;;
4021;SDS011;2025;48.260;16.432;2023-04-23T08:26:24;9.52;;;4.38;;
4021;SDS011;2025;48.260;16.432;2023-04-23T08:28:50;8.77;;;4.68;;
4021;SDS011;2025;48.260;16.432;2023-04-23T08:31:17;9.07;;;4.40;;
4021;SDS011;2025;48.260;16.432;2023-04-23T08:33:46;8.00;;;4.20;;
4021;SDS011;2025;48.260;16.432;2023-04-23T08:36:13;9.85;;;5.03;;
4021;SDS011;2025;48.260;16.432;2023-04-23T08:38:40;7.20;;;4.13;;
4021;SDS011;2025;48.260;16.432;2023-04-23T08:41:09;8.82;;;3.88;;
4021;SDS011;2025;48.260;16.432;2023-04-23T08:43:37;8.23;;;4.25;;
4021;SDS011;2025;48.260;16.432;2023-04-23T08:46:12;10.10;;;4.63;;
4021;SDS011;2025;48.260;16.432;2023-04-23T08:48:40;8.05;;;3.58;;
4021;SDS011;2025;48.260;16.432;2023-04-23T08:51:11;8.77;;;4.20;;
4021;SDS011;2025;48.260;16.432;2023-04-23T08:53:42;9.68;;;3.85;;
4021;SDS011;2025;48.260;16.432;2023-04-23T08:56:10;9.82;;;3.70;;
4021;SDS011;2025;48.260;16.432;2023-04-23T08:58:39;8.32;;;3.78;;
4021;SDS011;2025;48.260;16.432;2023-04-23T09:01:08;8.65;;;4.03;;
4021;SDS011;2025;48.260;16.432;2023-04-23T09:03:35;8.50;;;3.80;;
4021;SDS011;2025;48.260;16.432;2023-04-23T09:06:03;8.93;;;3.88;;
4021;SDS011;2025;48.260;16.432;2023-04-23T09:08:32;9.95;;;3.67;;
4021;SDS011;2025;48.260;16.432;2023-04-23T09:10:59;8.73;;;4.45;;
4021;SDS011;2025;48.260;16.432;2023-04-23T09:13:27;8.75;;;4.20;;
4021;SDS011;2025;48.260;16.432;2023-04-23T09:15:56;7.93;;;3.72;;
4021;SDS011;2025;48.260;16.432;2023-04-23T09:18:23;11.00;;;4.53;;
4021;SDS011;2025;48.260;16.432;2023-04-23T09:20:50;8.00;;;4.43;;
4021;SDS011;2025;48.260;16.432;2023-04-23T09:23:20;9.60;;;4.43;;
4021;SDS011;2025;48.260;16.432;2023-04-23T09:25:49;8.80;;;4.03;;
4021;SDS011;2025;48.260;16.432;2023-04-23T09:28:16;9.38;;;4.53;;
4021;SDS011;2025;48.260;16.432;2023-04-23T09:30:43;9.00;;;3.53;;
4021;SDS011;2025;48.260;16.432;2023-04-23T09:33:11;9.00;;;3.58;;
4021;SDS011;2025;48.260;16.432;2023-04-23T09:35:38;9.40;;;4.00;;
4021;SDS011;2025;48.260;16.432;2023-04-23T09:38:06;9.95;;;4.38;;
4021;SDS011;2025;48.260;16.432;2023-04-23T09:40:34;9.50;;;4.15;;
4021;SDS011;2025;48.260;16.432;2023-04-23T09:43:04;10.10;;;3.50;;
4021;SDS011;2025;48.260;16.432;2023-04-23T09:45:32;8.55;;;3.75;;
4021;SDS011;2025;48.260;16.432;2023-04-23T09:48:00;8.35;;;4.50;;
4021;SDS011;2025;48.260;16.432;2023-04-23T09:50:31;6.82;;;3.33;;
4021;SDS011;2025;48.260;16.432;2023-04-23T09:52:59;7.47;;;4.00;;
4021;SDS011;2025;48.260;16.432;2023-04-23T09:55:27;7.93;;;3.58;;
4021;SDS011;2025;48.260;16.432;2023-04-23T09:57:59;9.60;;;3.60;;
4021;SDS011;2025;48.260;16.432;2023-04-23T10:00:31;10.23;;;3.28;;
4021;SDS011;2025;48.260;16.432;2023-04-23T10:02:59;8.00;;;3.97;;
4021;SDS011;2025;48.260;16.432;2023-04-23T10:05:26;7.95;;;3.97;;
4021;SDS011;2025;48.260;16.432;2023-04-23T10:07:54;7.10;;;3.90;;
4021;SDS011;2025;48.260;16.432;2023-04-23T10:10:21;7.82;;;3.35;;
4021;SDS011;2025;48.260;16.432;2023-04-23T10:12:49;6.68;;;3.13;;
4021;SDS011;2025;48.260;16.432;2023-04-23T10:15:17;7.00;;;3.17;;
4021;SDS011;2025;48.260;16.432;2023-04-23T10:17:46;8.95;;;3.22;;
4021;SDS011;2025;48.260;16.432;2023-04-23T10:20:15;9.90;;;3.20;;
4021;SDS011;2025;48.260;16.432;2023-04-23T10:22:43;7.50;;;3.15;;
4021;SDS011;2025;48.260;16.432;2023-04-23T10:25:11;7.43;;;2.78;;
4021;SDS011;2025;48.260;16.432;2023-04-23T10:27:39;8.30;;;3.83;;
4021;SDS011;2025;48.260;16.432;2023-04-23T10:30:08;9.40;;;3.60;;
4021;SDS011;2025;48.260;16.432;2023-04-23T10:32:37;6.85;;;2.90;;
4021;SDS011;2025;48.260;16.432;2023-04-23T10:35:06;7.63;;;3.58;;
4021;SDS011;2025;48.260;16.432;2023-04-23T10:37:34;7.13;;;3.03;;
4021;SDS011;2025;48.260;16.432;2023-04-23T10:40:04;8.75;;;3.05;;
4021;SDS011;2025;48.260;16.432;2023-04-23T10:42:35;7.20;;;2.70;;
4021;SDS011;2025;48.260;16.432;2023-04-23T10:45:10;8.27;;;3.42;;
4021;SDS011;2025;48.260;16.432;2023-04-23T10:47:39;9.25;;;3.22;;
4021;SDS011;2025;48.260;16.432;2023-04-23T10:50:20;6.63;;;2.88;;
4021;SDS011;2025;48.260;16.432;2023-04-23T10:52:48;6.30;;;2.50;;
4021;SDS011;2025;48.260;16.432;2023-04-23T10:55:21;6.85;;;2.78;;
4021;SDS011;2025;48.260;16.432;2023-04-23T10:57:59;7.60;;;2.75;;
4021;SDS011;2025;48.260;16.432;2023-04-23T11:00:28;6.70;;;2.70;;
4021;SDS011;2025;48.260;16.432;2023-04-23T11:05:59;6.90;;;3.25;;
4021;SDS011;2025;48.260;16.432;2023-04-23T11:08:27;5.65;;;2.30;;
4021;SDS011;2025;48.260;16.432;2023-04-23T11:10:56;7.50;;;2.78;;
4021;SDS011;2025;48.260;16.432;2023-04-23T11:13:24;9.82;;;3.10;;
4021;SDS011;2025;48.260;16.432;2023-04-23T11:16:11;7.28;;;2.30;;
4021;SDS011;2025;48.260;16.432;2023-04-23T11:18:55;7.15;;;2.42;;
4021;SDS011;2025;48.260;16.432;2023-04-23T11:24:24;6.53;;;2.67;;
4021;SDS011;2025;48.260;16.432;2023-04-23T11:26:53;6.90;;;2.72;;
4021;SDS011;2025;48.260;16.432;2023-04-23T11:29:20;8.68;;;2.50;;
4021;SDS011;2025;48.260;16.432;2023-04-23T11:31:49;5.90;;;2.42;;
4021;SDS011;2025;48.260;16.432;2023-04-23T11:34:16;5.80;;;2.13;;
4021;SDS011;2025;48.260;16.432;2023-04-23T11:36:43;5.28;;;2.13;;
4021;SDS011;2025;48.260;16.432;2023-04-23T11:39:12;5.95;;;1.95;;
4021;SDS011;2025;48.260;16.432;2023-04-23T11:41:39;5.93;;;1.98;;
4021;SDS011;2025;48.260;16.432;2023-04-23T11:44:08;6.60;;;2.20;;
4021;SDS011;2025;48.260;16.432;2023-04-23T11:46:35;6.20;;;2.30;;
4021;SDS011;2025;48.260;16.432;2023-04-23T11:49:02;8.70;;;2.67;;
4021;SDS011;2025;48.260;16.432;2023-04-23T11:51:30;6.53;;;2.20;;
4021;SDS011;2025;48.260;16.432;2023-04-23T11:54:01;5.50;;;2.42;;
4021;SDS011;2025;48.260;16.432;2023-04-23T11:56:30;6.47;;;2.67;;
4021;SDS011;2025;48.260;16.432;2023-04-23T11:59:00;4.40;;;1.55;;
4021;SDS011;2025;48.260;16.432;2023-04-23T12:04:17;6.03;;;2.10;;
4021;SDS011;2025;48.260;16.432;2023-04-23T12:06:45;6.35;;;2.47;;
4021;SDS011;2025;48.260;16.432;2023-04-23T12:09:14;5.63;;;2.45;;
4021;SDS011;2025;48.260;16.432;2023-04-23T12:11:44;7.38;;;2.55;;
4021;SDS011;2025;48.260;16.432;2023-04-23T12:14:12;5.97;;;2.28;;
4021;SDS011;2025;48.260;16.432;2023-04-23T12:16:40;6.45;;;2.53;;
4021;SDS011;2025;48.260;16.432;2023-04-23T12:19:08;5.88;;;1.70;;
4021;SDS011;2025;48.260;16.432;2023-04-23T12:21:51;5.15;;;2.20;;
4021;SDS011;2025;48.260;16.432;2023-04-23T12:26:49;7.07;;;2.08;;
4021;SDS011;2025;48.260;16.432;2023-04-23T12:29:19;7.85;;;1.70;;
4021;SDS011;2025;48.260;16.432;2023-04-23T12:31:47;11.50;;;2.28;;
4021;SDS011;2025;48.260;16.432;2023-04-23T12:34:16;6.03;;;2.45;;
4021;SDS011;2025;48.260;16.432;2023-04-23T12:36:45;7.38;;;2.40;;
4021;SDS011;2025;48.260;16.432;2023-04-23T12:39:20;5.85;;;2.13;;
4021;SDS011;2025;48.260;16.432;2023-04-23T12:41:53;5.78;;;2.03;;
4021;SDS011;2025;48.260;16.432;2023-04-23T12:44:22;5.90;;;2.08;;
4021;SDS011;2025;48.260;16.432;2023-04-23T12:46:52;6.03;;;1.77;;
4021;SDS011;2025;48.260;16.432;2023-04-23T12:49:20;6.38;;;1.80;;
4021;SDS011;2025;48.260;16.432;2023-04-23T12:51:47;6.75;;;2.00;;
4021;SDS011;2025;48.260;16.432;2023-04-23T12:54:14;5.55;;;1.98;;
4021;SDS011;2025;48.260;16.432;2023-04-23T12:56:41;5.70;;;2.08;;
4021;SDS011;2025;48.260;16.432;2023-04-23T12:59:10;5.40;;;1.52;;
4021;SDS011;2025;48.260;16.432;2023-04-23T13:01:37;6.43;;;2.92;;
4021;SDS011;2025;48.260;16.432;2023-04-23T13:04:03;5.85;;;1.80;;
4021;SDS011;2025;48.260;16.432;2023-04-23T13:06:30;7.47;;;1.92;;
4021;SDS011;2025;48.260;16.432;2023-04-23T13:08:57;6.03;;;2.00;;
4021;SDS011;2025;48.260;16.432;2023-04-23T13:11:27;4.80;;;1.75;;
4021;SDS011;2025;48.260;16.432;2023-04-23T13:13:54;6.53;;;2.42;;
4021;SDS011;2025;48.260;16.432;2023-04-23T13:16:23;4.38;;;1.40;;
4021;SDS011;2025;48.260;16.432;2023-04-23T13:18:50;6.18;;;1.83;;
4021;SDS011;2025;48.260;16.432;2023-04-23T13:21:17;5.00;;;1.92;;
4021;SDS011;2025;48.260;16.432;2023-04-23T13:23:44;4.85;;;1.55;;
4021;SDS011;2025;48.260;16.432;2023-04-23T13:26:11;5.05;;;2.00;;
4021;SDS011;2025;48.260;16.432;2023-04-23T13:28:38;5.30;;;1.95;;
4021;SDS011;2025;48.260;16.432;2023-04-23T13:31:05;4.93;;;1.67;;
4021;SDS011;2025;48.260;16.432;2023-04-23T13:33:33;6.53;;;1.60;;
4021;SDS011;2025;48.260;16.432;2023-04-23T13:36:00;5.43;;;1.55;;
4021;SDS011;2025;48.260;16.432;2023-04-23T13:38:28;6.70;;;1.77;;
4021;SDS011;2025;48.260;16.432;2023-04-23T13:40:55;5.10;;;1.45;;
4021;SDS011;2025;48.260;16.432;2023-04-23T13:43:22;7.90;;;1.80;;
4021;SDS011;2025;48.260;16.432;2023-04-23T13:45:49;5.22;;;2.05;;
4021;SDS011;2025;48.260;16.432;2023-04-23T13:48:17;5.68;;;2.30;;
4021;SDS011;2025;48.260;16.432;2023-04-23T13:50:46;7.07;;;2.30;;
4021;SDS011;2025;48.260;16.432;2023-04-23T13:53:13;5.85;;;2.03;;
4021;SDS011;2025;48.260;16.432;2023-04-23T13:55:40;6.30;;;1.70;;
4021;SDS011;2025;48.260;16.432;2023-04-23T13:58:07;6.82;;;1.90;;
4021;SDS011;2025;48.260;16.432;2023-04-23T14:00:34;9.50;;;2.30;;
4021;SDS011;2025;48.260;16.432;2023-04-23T14:03:01;5.18;;;1.73;;
4021;SDS011;2025;48.260;16.432;2023-04-23T14:05:29;4.45;;;1.58;;
4021;SDS011;2025;48.260;16.432;2023-04-23T14:07:58;6.28;;;1.70;;
4021;SDS011;2025;48.260;16.432;2023-04-23T14:10:25;5.28;;;1.80;;
4021;SDS011;2025;48.260;16.432;2023-04-23T14:12:52;6.03;;;2.30;;
4021;SDS011;2025;48.260;16.432;2023-04-23T14:15:19;6.75;;;1.88;;
4021;SDS011;2025;48.260;16.432;2023-04-23T14:17:46;5.60;;;2.00;;
4021;SDS011;2025;48.260;16.432;2023-04-23T14:20:14;6.13;;;2.35;;
4021;SDS011;2025;48.260;16.432;2023-04-23T14:22:44;5.07;;;1.80;;
4021;SDS011;2025;48.260;16.432;2023-04-23T14:25:23;5.22;;;1.70;;
4021;SDS011;2025;48.260;16.432;2023-04-23T14:27:50;4.90;;;1.60;;
4021;SDS011;2025;48.260;16.432;2023-04-23T14:30:21;5.97;;;1.85;;
4021;SDS011;2025;48.260;16.432;2023-04-23T14:32:51;5.15;;;2.10;;
4021;SDS011;2025;48.260;16.432;2023-04-23T14:35:20;4.88;;;1.67;;
4021;SDS011;2025;48.260;16.432;2023-04-23T14:37:48;5.07;;;2.00;;
4021;SDS011;2025;48.260;16.432;2023-04-23T14:40:17;5.20;;;2.20;;
4021;SDS011;2025;48.260;16.432;2023-04-23T14:42:45;5.28;;;1.73;;
4021;SDS011;2025;48.260;16.432;2023-04-23T14:45:14;5.55;;;1.98;;
4021;SDS011;2025;48.260;16.432;2023-04-23T14:47:42;7.05;;;1.85;;
4021;SDS011;2025;48.260;16.432;2023-04-23T14:50:12;6.90;;;2.15;;
4021;SDS011;2025;48.260;16.432;2023-04-23T14:52:40;5.60;;;1.80;;
4021;SDS011;2025;48.260;16.432;2023-04-23T14:55:10;5.68;;;1.75;;
4021;SDS011;2025;48.260;16.432;2023-04-23T14:57:39;5.55;;;2.10;;
4021;SDS011;2025;48.260;16.432;2023-04-23T15:00:06;5.50;;;1.67;;
4021;SDS011;2025;48.260;16.432;2023-04-23T15:02:37;7.22;;;2.10;;
4021;SDS011;2025;48.260;16.432;2023-04-23T15:05:05;6.00;;;2.15;;
4021;SDS011;2025;48.260;16.432;2023-04-23T15:07:33;7.63;;;2.33;;
4021;SDS011;2025;48.260;16.432;2023-04-23T15:10:00;5.70;;;2.15;;
4021;SDS011;2025;48.260;16.432;2023-04-23T15:12:36;6.13;;;1.70;;